createdAt,value
2019-03-25T00:01:20.805Z,100702.25
2019-03-25T00:03:51.858Z,100705.23
2019-03-25T00:06:22.306Z,100696.97
2019-03-25T00:09:04.591Z,100696.01
2019-03-25T00:11:24.439Z,100689.09
2019-03-25T00:13:54.850Z,100689.14
2019-03-25T00:16:25.282Z,100681.22
2019-03-25T00:18:55.602Z,100680.37
2019-03-25T00:21:26.030Z,100669.03
2019-03-25T00:23:56.692Z,100675.98
2019-03-25T00:26:27.123Z,100675.98
2019-03-25T00:28:57.507Z,100667.77
2019-03-25T00:31:27.793Z,100662.11
2019-03-25T00:33:58.450Z,100655.95
2019-03-25T00:36:28.789Z,100651.69
2019-03-25T00:38:58.927Z,100651.69
2019-03-25T00:41:29.383Z,100638.51
2019-03-25T00:43:59.730Z,100634.55
2019-03-25T00:46:29.956Z,100634.55
2019-03-25T00:49:00.712Z,100629.70
2019-03-25T00:51:30.856Z,100628.02
2019-03-25T00:54:01.214Z,100621.48
2019-03-25T00:56:31.345Z,100621.48
2019-03-25T00:59:01.625Z,100609.72
2019-03-25T01:01:31.762Z,100609.80
2019-03-25T01:04:02.262Z,100605.95
2019-03-25T01:06:32.442Z,100604.64
2019-03-25T01:09:02.611Z,100605.88
2019-03-25T01:11:32.909Z,100602.38
2019-03-25T01:14:03.034Z,100598.42
2019-03-25T01:16:33.257Z,100603.69
2019-03-25T01:19:03.753Z,100607.22
2019-03-25T01:21:34.137Z,100598.95
2019-03-25T01:24:04.332Z,100594.19
2019-03-25T01:26:34.678Z,100594.19
2019-03-25T01:29:04.884Z,100592.42
2019-03-25T01:31:35.175Z,100592.45
2019-03-25T01:34:05.587Z,100588.00
2019-03-25T01:36:35.834Z,100593.66
2019-03-25T01:39:07.910Z,100583.30
2019-03-25T01:41:38.377Z,100576.70
2019-03-25T01:44:08.670Z,100575.81
2019-03-25T01:46:39.067Z,100579.70
2019-03-25T01:49:09.807Z,100584.51
2019-03-25T01:51:40.101Z,100580.97
2019-03-25T01:54:10.446Z,100575.64
2019-03-25T01:56:40.709Z,100576.09
2019-03-25T01:59:10.752Z,100572.98
2019-03-25T02:01:41.119Z,100572.98
2019-03-25T02:04:11.633Z,100572.95
2019-03-25T02:06:42.002Z,100566.45
2019-03-25T02:09:12.270Z,100566.88
2019-03-25T02:11:42.537Z,100566.88
2019-03-25T02:14:12.732Z,100569.14
2019-03-25T02:16:42.899Z,100569.14
2019-03-25T02:19:13.290Z,100561.77
2019-03-25T02:21:43.581Z,100561.19
2019-03-25T02:24:13.611Z,100559.88
2019-03-25T02:26:43.698Z,100550.78
2019-03-25T02:29:13.808Z,100548.23
2019-03-25T02:31:47.194Z,100548.23
2019-03-25T02:34:17.698Z,100533.80
2019-03-25T02:36:47.978Z,100533.80
2019-03-25T02:39:18.438Z,100554.27
2019-03-25T02:41:48.970Z,100548.59
2019-03-25T02:44:19.328Z,100534.91
2019-03-25T02:46:49.614Z,100534.91
2019-03-25T02:49:20.139Z,100539.68
2019-03-25T02:51:50.352Z,100543.13
2019-03-25T02:54:20.512Z,100537.06
2019-03-25T02:56:50.927Z,100537.14
2019-03-25T02:59:21.057Z,100549.31
2019-03-25T03:01:51.460Z,100549.31
2019-03-25T03:04:22.023Z,100543.77
2019-03-25T03:06:52.308Z,100543.77
2019-03-25T03:09:22.615Z,100562.83
2019-03-25T03:11:52.926Z,100562.83
2019-03-25T03:14:23.037Z,100561.11
2019-03-25T03:16:53.473Z,100561.11
2019-03-25T03:19:23.742Z,100564.92
2019-03-25T03:21:53.866Z,100564.92
2019-03-25T03:24:24.163Z,100569.18
2019-03-25T03:26:54.520Z,100572.77
2019-03-25T03:29:24.872Z,100571.38
2019-03-25T03:31:55.317Z,100569.55
2019-03-25T03:34:25.792Z,100570.50
2019-03-25T03:36:55.949Z,100570.50
2019-03-25T03:39:26.144Z,100563.92
2019-03-25T03:41:56.693Z,100533.06
2019-03-25T03:44:26.922Z,100552.34
2019-03-25T03:46:57.177Z,100555.20
2019-03-25T03:49:27.894Z,100379.13
2019-03-25T03:51:58.504Z,100379.13
2019-03-25T03:54:28.849Z,100550.41
2019-03-25T03:56:59.363Z,100562.14
2019-03-25T03:59:29.810Z,100561.72
2019-03-25T04:02:00.101Z,100561.68
2019-03-25T04:04:30.426Z,100561.68
2019-03-25T04:07:00.710Z,100564.38
2019-03-25T04:09:30.818Z,100562.62
2019-03-25T04:12:00.927Z,100562.62
2019-03-25T04:14:31.216Z,100581.77
2019-03-25T04:17:01.297Z,100581.77
2019-03-25T04:19:31.769Z,100576.03
2019-03-25T04:22:01.966Z,100591.80
2019-03-25T04:24:32.200Z,100591.80
2019-03-25T04:27:02.573Z,100600.09
2019-03-25T04:29:32.632Z,100600.09
2019-03-25T04:32:06.084Z,100602.78
2019-03-25T04:34:35.120Z,100602.41
2019-03-25T04:37:05.427Z,100621.95
2019-03-25T04:39:35.511Z,100615.88
2019-03-25T04:42:05.867Z,100620.77
2019-03-25T04:44:36.079Z,100621.62
2019-03-25T04:47:06.343Z,100632.02
2019-03-25T04:49:36.837Z,100637.45
2019-03-25T04:52:07.192Z,100637.45
2019-03-25T04:54:37.425Z,100646.31
2019-03-25T04:57:07.671Z,100646.31
2019-03-25T04:59:37.864Z,100647.16
2019-03-25T05:02:08.106Z,100652.28
2019-03-25T05:04:38.591Z,100664.88
2019-03-25T05:07:08.850Z,100665.70
2019-03-25T05:09:39.034Z,100680.05
2019-03-25T05:12:09.328Z,100680.05
2019-03-25T05:14:39.535Z,100681.36
2019-03-25T05:17:09.798Z,100695.97
2019-03-25T05:19:40.415Z,100695.97
2019-03-25T05:22:11.164Z,100692.52
2019-03-25T05:24:41.417Z,100701.65
2019-03-25T05:27:11.566Z,100709.06
2019-03-25T05:29:41.748Z,100709.06
2019-03-25T05:32:11.778Z,100716.83
2019-03-25T05:34:42.077Z,100716.83
2019-03-25T05:37:12.173Z,100722.66
2019-03-25T05:39:42.260Z,100715.58
2019-03-25T05:42:12.429Z,100730.77
2019-03-25T05:44:42.932Z,100720.86
2019-03-25T05:47:13.138Z,100720.86
2019-03-25T05:49:43.876Z,100743.53
2019-03-25T05:52:14.188Z,100745.25
2019-03-25T05:54:44.415Z,100745.25
2019-03-25T05:57:14.690Z,100753.14
2019-03-25T05:59:45.070Z,100744.84
2019-03-25T06:02:15.520Z,100772.76
2019-03-25T06:04:45.942Z,100764.47
2019-03-25T06:07:16.095Z,100764.47
2019-03-25T06:09:46.448Z,100585.36
2019-03-25T06:12:16.503Z,100775.07
2019-03-25T06:14:46.841Z,100780.40
2019-03-25T06:17:17.045Z,100780.40
2019-03-25T06:19:47.590Z,100784.91
2019-03-25T06:22:17.962Z,100803.67
2019-03-25T06:24:48.310Z,100803.67
2019-03-25T06:27:18.574Z,100823.02
2019-03-25T06:29:48.874Z,100823.02
2019-03-25T06:32:19.070Z,100818.72
2019-03-25T06:34:49.545Z,100818.72
2019-03-25T06:37:19.711Z,100827.53
2019-03-25T06:39:50.052Z,100851.03
2019-03-25T06:42:20.318Z,100851.03
2019-03-25T06:44:50.648Z,100853.80
2019-03-25T06:47:20.815Z,100853.80
2019-03-25T06:49:51.232Z,100858.91
2019-03-25T06:52:21.299Z,100859.80
2019-03-25T06:54:51.532Z,100870.37
2019-03-25T06:57:25.720Z,100883.02
2019-03-25T06:59:54.270Z,100883.02
2019-03-25T07:02:24.340Z,100889.66
2019-03-25T07:04:55.042Z,100894.01
2019-03-25T07:07:25.513Z,100910.09
2019-03-25T07:09:55.957Z,100910.09
2019-03-25T07:12:26.495Z,100921.91
2019-03-25T07:14:56.726Z,100932.29
2019-03-25T07:17:27.075Z,100940.19
2019-03-25T07:19:57.605Z,100950.72
2019-03-25T07:22:28.263Z,100965.67
2019-03-25T07:24:58.645Z,100968.28
2019-03-25T07:27:36.751Z,100968.28
2019-03-25T07:30:00.950Z,100978.73
2019-03-25T07:32:31.266Z,100977.91
2019-03-25T07:35:01.826Z,101001.52
2019-03-25T07:37:32.079Z,100996.34
2019-03-25T07:40:02.563Z,101008.00
2019-03-25T07:42:32.754Z,101008.00
2019-03-25T07:45:03.047Z,101009.95
2019-03-25T07:47:33.323Z,101022.31
2019-03-25T07:50:03.832Z,101030.71
2019-03-25T07:52:33.987Z,101032.85
2019-03-25T07:55:04.546Z,101043.19
2019-03-25T07:57:34.792Z,101055.36
2019-03-25T08:00:13.469Z,101054.05
2019-03-25T08:02:37.746Z,101054.05
2019-03-25T08:05:08.650Z,101059.28
2019-03-25T08:07:39.157Z,101059.28
2019-03-25T08:10:10.030Z,101074.86
2019-03-25T08:12:40.314Z,101074.86
2019-03-25T08:15:10.964Z,101076.24
2019-03-25T08:17:41.187Z,101087.17
2019-03-25T08:20:11.966Z,101085.50
2019-03-25T08:22:42.208Z,101089.12
2019-03-25T08:25:12.921Z,101083.73
2019-03-25T08:27:43.237Z,101116.95
2019-03-25T08:30:13.891Z,101116.95
2019-03-25T08:32:44.091Z,101149.66
2019-03-25T08:35:14.591Z,101152.70
2019-03-25T08:37:44.961Z,101152.70
2019-03-25T08:40:15.322Z,101162.28
2019-03-25T08:42:45.450Z,101162.28
2019-03-25T08:45:15.910Z,101172.69
2019-03-25T08:47:46.229Z,101172.69
2019-03-25T08:50:17.319Z,101185.06
2019-03-25T08:52:47.856Z,101180.84
2019-03-25T08:55:18.035Z,101175.34
2019-03-25T08:57:48.281Z,101180.23
2019-03-25T09:00:19.440Z,101196.00
2019-03-25T09:02:49.709Z,101196.00
2019-03-25T09:05:20.165Z,101202.30
2019-03-25T09:07:50.575Z,101211.67
2019-03-25T09:10:21.043Z,101218.12
2019-03-25T09:12:51.413Z,101229.91
2019-03-25T09:15:21.919Z,101237.89
2019-03-25T09:17:52.287Z,101241.28
2019-03-25T09:20:22.913Z,101079.98
2019-03-25T09:22:53.419Z,101264.91
2019-03-25T09:25:23.736Z,101278.86
2019-03-25T09:27:54.014Z,101295.19
2019-03-25T09:31:16.540Z,101305.23
2019-03-25T09:33:47.305Z,101326.42
2019-03-25T09:36:18.809Z,101326.42
2019-03-25T09:38:49.246Z,101336.64
2019-03-25T09:41:20.279Z,101337.95
2019-03-25T09:43:50.744Z,101347.32
2019-03-25T09:46:21.140Z,101347.32
2019-03-25T09:48:51.415Z,101354.53
2019-03-25T09:51:22.583Z,101348.95
2019-03-25T09:53:52.713Z,101338.05
2019-03-25T09:56:23.125Z,101344.40
2019-03-25T09:58:53.352Z,101344.40
2019-03-25T10:01:23.805Z,101359.63
2019-03-25T10:03:53.916Z,101362.48
2019-03-25T10:06:24.261Z,101364.39
2019-03-25T10:08:54.695Z,101380.10
2019-03-25T10:11:24.944Z,101395.74
2019-03-25T10:13:55.204Z,101394.71
2019-03-25T10:16:25.182Z,101396.58
2019-03-25T10:18:55.460Z,101398.58
2019-03-25T10:21:25.849Z,101407.34
2019-03-25T10:23:56.101Z,101399.95
2019-03-25T10:26:26.475Z,101410.09
2019-03-25T10:28:56.770Z,101418.09
2019-03-25T10:31:26.973Z,101428.98
2019-03-25T10:33:57.285Z,101428.98
2019-03-25T10:36:27.886Z,101418.84
2019-03-25T10:38:58.152Z,101437.47
2019-03-25T10:41:28.556Z,101435.55
2019-03-25T10:43:58.943Z,101462.27
2019-03-25T10:46:29.189Z,101465.27
2019-03-25T10:48:59.347Z,101472.48
2019-03-25T10:51:30.909Z,101470.84
2019-03-25T10:54:01.227Z,101469.19
2019-03-25T10:56:31.577Z,101462.56
2019-03-25T10:59:01.773Z,101476.12
2019-03-25T11:01:31.934Z,101483.98
2019-03-25T11:04:02.123Z,101497.46
2019-03-25T11:06:32.579Z,101501.30
2019-03-25T11:09:02.852Z,101500.08
2019-03-25T11:11:33.458Z,101498.34
2019-03-25T11:14:03.976Z,101496.80
2019-03-25T11:16:34.215Z,101497.58
2019-03-25T11:19:04.629Z,101497.58
2019-03-25T11:21:35.186Z,101514.20
2019-03-25T11:24:05.442Z,101522.86
2019-03-25T11:26:35.970Z,101522.86
2019-03-25T11:29:08.684Z,101527.36
2019-03-25T11:31:38.422Z,101530.11
2019-03-25T11:34:08.790Z,101530.11
2019-03-25T11:36:39.197Z,101547.78
2019-03-25T11:39:09.964Z,101551.70
2019-03-25T11:41:40.128Z,101544.33
2019-03-25T11:44:10.530Z,101544.33
2019-03-25T11:46:41.083Z,101544.33
2019-03-25T11:49:11.326Z,101547.62
2019-03-25T11:51:42.108Z,101547.66
2019-03-25T11:54:12.553Z,101559.72
2019-03-25T11:56:42.739Z,101569.16
2019-03-25T11:59:18.539Z,101579.46
2019-03-25T12:01:44.801Z,101579.46
2019-03-25T12:04:14.916Z,101581.80
2019-03-25T12:06:45.126Z,101598.09
2019-03-25T12:09:15.263Z,101598.77
2019-03-25T12:11:45.346Z,101602.43
2019-03-25T12:14:15.542Z,101601.05
2019-03-25T12:16:45.818Z,101603.02
2019-03-25T12:19:15.906Z,101602.28
2019-03-25T12:21:46.206Z,101602.28
2019-03-25T12:24:16.329Z,101608.08
2019-03-25T12:26:46.622Z,101617.20
2019-03-25T12:29:16.661Z,101622.38
2019-03-25T12:31:46.698Z,101620.63
2019-03-25T12:34:17.167Z,101620.63
2019-03-25T12:36:47.745Z,101623.13
2019-03-25T12:39:18.110Z,101626.66
2019-03-25T12:41:48.380Z,101631.81
2019-03-25T12:44:18.738Z,101640.30
2019-03-25T12:46:49.087Z,101646.84
2019-03-25T12:49:19.294Z,101658.59
2019-03-25T12:51:49.690Z,101658.59
2019-03-25T12:54:21.005Z,101646.38
2019-03-25T12:56:51.129Z,101643.32
2019-03-25T12:59:21.374Z,101648.23
2019-03-25T13:01:53.445Z,101658.72
2019-03-25T13:04:23.760Z,101658.72
2019-03-25T13:06:54.233Z,101668.53
2019-03-25T13:09:24.331Z,101665.77
2019-03-25T13:11:54.695Z,101662.53
2019-03-25T13:14:24.770Z,101664.19
2019-03-25T13:16:55.045Z,101664.13
2019-03-25T13:19:25.162Z,101670.20
2019-03-25T13:21:55.547Z,101678.34
2019-03-25T13:24:25.985Z,101679.87
2019-03-25T13:26:56.282Z,101676.37
2019-03-25T13:29:26.507Z,101669.87
2019-03-25T13:31:56.835Z,101671.65
2019-03-25T13:34:27.009Z,101676.49
2019-03-25T13:36:57.532Z,101676.49
2019-03-25T13:39:27.754Z,101678.38
2019-03-25T13:41:58.213Z,101678.38
2019-03-25T13:44:28.524Z,101689.34
2019-03-25T13:46:58.814Z,101691.20
2019-03-25T13:49:29.055Z,101694.24
2019-03-25T13:51:59.424Z,101695.59
2019-03-25T13:54:29.798Z,101700.45
2019-03-25T13:57:05.670Z,101711.70
2019-03-25T13:59:35.864Z,101711.70
2019-03-25T14:02:06.454Z,101707.23
2019-03-25T14:04:36.826Z,101714.39
2019-03-25T14:07:07.362Z,101710.62
2019-03-25T14:09:37.886Z,101710.62
2019-03-25T14:12:08.128Z,101707.03
2019-03-25T14:14:38.660Z,101715.56
2019-03-25T14:17:09.588Z,101719.92
2019-03-25T14:19:39.903Z,101719.92
2019-03-25T14:22:10.426Z,101727.45
2019-03-25T14:24:40.694Z,101721.65
2019-03-25T14:27:10.962Z,101725.66
2019-03-25T14:29:41.229Z,101731.73
2019-03-25T14:32:11.463Z,101729.61
2019-03-25T14:34:45.038Z,101729.61
2019-03-25T14:37:14.160Z,101739.62
2019-03-25T14:39:44.494Z,101743.07
2019-03-25T14:42:14.540Z,101741.29
2019-03-25T14:44:46.327Z,101742.33
2019-03-25T14:47:16.802Z,101744.09
2019-03-25T14:49:47.052Z,101751.08
2019-03-25T14:52:17.954Z,101751.84
2019-03-25T14:54:48.192Z,101761.31
2019-03-25T14:57:18.944Z,101759.59
2019-03-25T14:59:50.237Z,101758.05
2019-03-25T15:02:20.920Z,101757.09
2019-03-25T15:04:51.439Z,101756.96
2019-03-25T15:07:22.183Z,101762.55
2019-03-25T15:09:52.254Z,101759.03
2019-03-25T15:12:22.364Z,101759.46
2019-03-25T15:14:52.670Z,101749.84
2019-03-25T15:17:22.964Z,101761.16
2019-03-25T15:19:53.366Z,101753.30
2019-03-25T15:22:23.818Z,101752.97
2019-03-25T15:24:54.143Z,101755.71
2019-03-25T15:27:24.312Z,101760.22
2019-03-25T15:29:54.499Z,101769.19
2019-03-25T15:32:24.899Z,101763.05
2019-03-25T15:34:54.975Z,101765.93
2019-03-25T15:37:25.589Z,101773.33
2019-03-25T15:39:55.909Z,101769.73
2019-03-25T15:42:25.925Z,101769.80
2019-03-25T15:44:56.226Z,101766.88
2019-03-25T15:47:26.702Z,101771.40
2019-03-25T15:49:56.989Z,101768.42
2019-03-25T15:52:27.700Z,101779.25
2019-03-25T15:54:58.264Z,101767.78
2019-03-25T15:57:28.763Z,101767.78
2019-03-25T15:59:59.085Z,101779.84
2019-03-25T16:02:29.415Z,101789.70
2019-03-25T16:04:59.790Z,101785.19
2019-03-25T16:07:30.469Z,101783.16
2019-03-25T16:10:00.712Z,101783.16
2019-03-25T16:12:31.065Z,101781.48
2019-03-25T16:15:01.425Z,101778.66
2019-03-25T16:17:32.004Z,101787.34
2019-03-25T16:20:02.319Z,101782.02
2019-03-25T16:22:32.981Z,101792.66
2019-03-25T16:25:03.328Z,101801.13
2019-03-25T16:27:33.684Z,101797.22
2019-03-25T16:30:04.968Z,101797.42
2019-03-25T16:32:35.360Z,101804.31
2019-03-25T16:35:06.120Z,101796.53
2019-03-25T16:37:36.415Z,101807.03
2019-03-25T16:40:07.436Z,101795.64
2019-03-25T16:42:40.127Z,101797.10
2019-03-25T16:45:10.292Z,101800.80
2019-03-25T16:47:40.374Z,101792.73
2019-03-25T16:50:10.685Z,101798.81
2019-03-25T16:52:41.237Z,101783.83
2019-03-25T16:55:11.363Z,101783.83
2019-03-25T16:57:41.666Z,101785.96
2019-03-25T17:00:12.796Z,101790.37
2019-03-25T17:02:43.024Z,101793.30
2019-03-25T17:05:13.564Z,101800.05
2019-03-25T17:07:43.958Z,101800.05
2019-03-25T17:10:14.265Z,101792.51
2019-03-25T17:12:44.794Z,101791.84
2019-03-25T17:15:14.999Z,101797.92
2019-03-25T17:17:45.287Z,101803.16
2019-03-25T17:20:15.610Z,101802.04
2019-03-25T17:22:46.230Z,101810.30
2019-03-25T17:25:16.843Z,101810.30
2019-03-25T17:27:47.316Z,101803.13
2019-03-25T17:30:18.368Z,101810.68
2019-03-25T17:32:48.796Z,101832.92
2019-03-25T17:35:19.105Z,101806.34
2019-03-25T17:37:49.585Z,101803.72
2019-03-25T17:40:20.026Z,101803.72
2019-03-25T17:42:50.403Z,101793.37
2019-03-25T17:45:21.174Z,101793.37
2019-03-25T17:47:51.537Z,101788.34
2019-03-25T17:50:22.169Z,101798.66
2019-03-25T17:52:52.579Z,101792.66
2019-03-25T17:55:22.945Z,101792.66
2019-03-25T17:57:53.013Z,101795.83
2019-03-25T18:00:59.515Z,101790.63
2019-03-25T18:03:29.864Z,101784.56
2019-03-25T18:06:00.191Z,101790.78
2019-03-25T18:08:30.863Z,101785.97
2019-03-25T18:11:01.346Z,101786.35
2019-03-25T18:13:31.638Z,101775.80
2019-03-25T18:16:02.006Z,101775.80
2019-03-25T18:18:32.243Z,101779.48
2019-03-25T18:21:02.571Z,101780.73
2019-03-25T18:23:33.053Z,101769.86
2019-03-25T18:26:03.557Z,101781.63
2019-03-25T18:28:33.693Z,101778.95
2019-03-25T18:31:03.935Z,101778.90
2019-03-25T18:33:34.199Z,101778.90
2019-03-25T18:36:05.001Z,101785.09
2019-03-25T18:38:35.323Z,101785.09
2019-03-25T18:41:05.560Z,101800.84
2019-03-25T18:43:35.828Z,101808.14
2019-03-25T18:46:06.196Z,101808.14
2019-03-25T18:48:36.565Z,101796.14
2019-03-25T18:51:07.034Z,101806.45
2019-03-25T18:53:37.556Z,101806.45
2019-03-25T18:56:07.676Z,101817.34
2019-03-25T18:58:39.108Z,101810.30
2019-03-25T19:01:09.257Z,101813.65
2019-03-25T19:03:39.620Z,101801.21
2019-03-25T19:06:10.605Z,101809.22
2019-03-25T19:08:40.949Z,101801.19
2019-03-25T19:11:11.480Z,101802.08
2019-03-25T19:13:42.077Z,101805.25
2019-03-25T19:16:12.816Z,101805.30
2019-03-25T19:18:43.208Z,101803.86
2019-03-25T19:21:13.558Z,101803.86
2019-03-25T19:23:44.207Z,101803.38
2019-03-25T19:26:14.399Z,101794.80
2019-03-25T19:28:44.727Z,101793.73
2019-03-25T19:31:15.571Z,101797.13
2019-03-25T19:33:45.646Z,101796.58
2019-03-25T19:36:15.755Z,101793.39
2019-03-25T19:38:46.193Z,101795.89
2019-03-25T19:41:19.953Z,101788.67
2019-03-25T19:43:48.620Z,101784.52
2019-03-25T19:46:18.810Z,101784.52
2019-03-25T19:48:49.291Z,101785.05
2019-03-25T19:51:19.410Z,101783.71
2019-03-25T19:53:50.228Z,101783.71
2019-03-25T19:56:20.422Z,101792.36
2019-03-25T19:58:50.999Z,101786.28
2019-03-25T20:01:21.458Z,101777.94
2019-03-25T20:03:51.646Z,101780.99
2019-03-25T20:06:26.402Z,101788.38
2019-03-25T20:08:54.012Z,101780.03
2019-03-25T20:11:24.286Z,101779.03
2019-03-25T20:13:54.391Z,101780.70
2019-03-25T20:16:24.938Z,101783.20
2019-03-25T20:18:55.404Z,101782.13
2019-03-25T20:21:25.503Z,101648.06
2019-03-25T20:23:56.405Z,101785.41
2019-03-25T20:26:27.035Z,101778.41
2019-03-25T20:28:57.459Z,101778.78
2019-03-25T20:31:27.850Z,101781.76
2019-03-25T20:34:10.470Z,101777.84
2019-03-25T20:36:30.459Z,101775.98
2019-03-25T20:39:01.337Z,101770.17
2019-03-25T20:41:31.783Z,101773.63
2019-03-25T20:44:02.654Z,101770.13
2019-03-25T20:46:32.840Z,101767.83
2019-03-25T20:49:03.510Z,101762.98
2019-03-25T20:51:33.944Z,101754.59
2019-03-25T20:54:04.706Z,101757.57
2019-03-25T20:56:35.023Z,101747.14
2019-03-25T20:59:05.537Z,101747.96
2019-03-25T21:01:35.672Z,101739.25
2019-03-25T21:04:06.219Z,101738.61
2019-03-25T21:06:36.428Z,101659.94
2019-03-25T21:09:07.949Z,101659.94
2019-03-25T21:11:38.251Z,101731.79
2019-03-25T21:14:08.448Z,101735.41
2019-03-25T21:16:38.634Z,101725.28
2019-03-25T21:19:09.438Z,101723.41
2019-03-25T21:21:40.349Z,101721.36
2019-03-25T21:24:10.773Z,101720.61
2019-03-25T21:26:41.142Z,101716.06
2019-03-25T21:29:11.484Z,101710.02
2019-03-25T21:31:41.995Z,101709.27
2019-03-25T21:34:12.068Z,101700.59
2019-03-25T21:36:42.393Z,101697.38
2019-03-25T21:39:12.895Z,101683.84
2019-03-25T21:41:43.232Z,101685.28
2019-03-25T21:44:13.755Z,101684.08
2019-03-25T21:46:44.661Z,101681.63
2019-03-25T21:49:14.880Z,101684.00
2019-03-25T21:51:45.288Z,101682.69
2019-03-25T21:54:15.876Z,101678.05
2019-03-25T21:56:46.374Z,101659.29
2019-03-25T21:59:16.691Z,101659.29
2019-03-25T22:01:47.422Z,101646.48
2019-03-25T22:04:17.709Z,101634.86
2019-03-25T22:06:48.510Z,101629.13
2019-03-25T22:09:19.149Z,101629.13
2019-03-25T22:11:49.732Z,101626.14
2019-03-25T22:14:20.162Z,101627.86
2019-03-25T22:16:50.708Z,101621.17
2019-03-25T22:19:21.232Z,101626.91
2019-03-25T22:21:51.726Z,101620.63
2019-03-25T22:24:22.510Z,101618.97
2019-03-25T22:26:52.702Z,101609.83
2019-03-25T22:29:23.085Z,101598.38
2019-03-25T22:31:53.360Z,101598.38
2019-03-25T22:34:23.716Z,101598.44
2019-03-25T22:36:54.117Z,101584.11
2019-03-25T22:39:24.524Z,101584.11
2019-03-25T22:41:55.020Z,101582.64
2019-03-25T22:44:25.206Z,101578.34
2019-03-25T22:46:55.543Z,101586.30
2019-03-25T22:49:26.014Z,101584.67
2019-03-25T22:51:56.302Z,101584.27
2019-03-25T22:54:26.980Z,101592.13
2019-03-25T22:56:57.421Z,101585.06
2019-03-25T22:59:27.697Z,101584.67
2019-03-25T23:01:58.437Z,101591.59
2019-03-25T23:04:29.678Z,101591.59
2019-03-25T23:07:00.294Z,101589.80
2019-03-25T23:09:30.784Z,101589.03
2019-03-25T23:12:01.662Z,101589.64
2019-03-25T23:14:32.016Z,101593.55
2019-03-25T23:17:02.287Z,101598.17
2019-03-25T23:19:32.607Z,101602.86
2019-03-25T23:22:03.007Z,101605.47
2019-03-25T23:24:33.414Z,101600.57
2019-03-25T23:27:03.601Z,101589.71
2019-03-25T23:29:34.162Z,101600.34
2019-03-25T23:32:04.930Z,101592.52
2019-03-25T23:34:35.553Z,101593.91
2019-03-25T23:37:05.715Z,101590.72
2019-03-25T23:39:36.263Z,101595.53
2019-03-25T23:42:06.779Z,101589.71
2019-03-25T23:44:37.101Z,101590.57
2019-03-25T23:47:07.368Z,101349.74
2019-03-25T23:49:37.692Z,101585.32
2019-03-25T23:52:08.074Z,101584.88
2019-03-25T23:54:38.559Z,101584.88
2019-03-25T23:57:09.042Z,101587.36
2019-03-25T23:59:39.367Z,101580.95
